Time;durP1;ratioP1;P1;durP2;ratioP2;P2;SDS_P1;SDS_P2;PMS_P1;PMS_P2;Temp;Humidity;BMP_temperature;BMP_pressure;BME280_temperature;BME280_humidity;BME280_pressure;Samples;Min_cycle;Max_cycle;Signal;HPM_P1;HPM_P2
2022/08/30 00:01:52;;;;;;;2.03;1.83;;;;;;;20.29;65.10;97274.22;10466434;28;20048;-49
2022/08/30 00:07:11;;;;;;;2.20;2.00;;;;;;;20.30;64.91;97275.78;10461632;28;20431;-50
2022/08/30 00:12:31;;;;;;;2.25;1.92;;;;;;;20.30;64.95;97275.00;10468521;28;20819;-50
2022/08/30 00:17:50;;;;;;;2.10;1.90;;;;;;;20.29;64.91;97271.50;10460983;28;20056;-49
2022/08/30 00:23:11;;;;;;;2.35;2.00;;;;;;;20.29;64.87;97273.44;10452351;28;20068;-51
2022/08/30 00:28:32;;;;;;;2.33;1.90;;;;;;;20.28;64.93;97267.19;10471719;28;20048;-50
2022/08/30 00:33:52;;;;;;;2.13;1.80;;;;;;;20.29;64.84;97276.94;10459350;28;20049;-50
2022/08/30 00:39:11;;;;;;;2.30;1.92;;;;;;;20.28;64.88;97272.63;10460010;28;20049;-51
2022/08/30 00:44:31;;;;;;;1.80;1.70;;;;;;;20.27;64.85;97276.44;10473584;28;20052;-49
2022/08/30 00:49:55;;;;;;;2.25;1.80;;;;;;;20.28;64.77;97280.72;10459308;28;20534;-51
2022/08/30 00:55:16;;;;;;;2.20;2.00;;;;;;;20.28;64.75;97272.63;10457845;28;20056;-50
2022/08/30 01:00:35;;;;;;;2.20;2.00;;;;;;;20.28;64.69;97269.13;10460052;28;20400;-51
2022/08/30 01:05:57;;;;;;;1.70;1.60;;;;;;;20.26;64.70;97272.13;10458594;28;20041;-50
2022/08/30 01:11:19;;;;;;;1.90;1.80;;;;;;;20.26;64.39;97277.53;10458800;28;20053;-51
2022/08/30 01:16:40;;;;;;;2.65;1.70;;;;;;;20.26;64.77;97274.06;10464642;28;20037;-51
2022/08/30 01:22:38;;;;;;;1.80;1.70;;;;;;;20.26;64.73;97266.72;10457985;28;20060;-50
2022/08/30 01:28:02;;;;;;;1.60;1.50;;;;;;;20.25;64.64;97270.56;10456968;28;20124;-51
2022/08/30 01:33:23;;;;;;;1.80;1.70;;;;;;;20.26;64.39;97269.44;10443241;28;20064;-48
2022/08/30 01:38:56;;;;;;;1.80;1.67;;;;;;;20.25;64.63;97267.84;10458033;28;20061;-50
2022/08/30 01:44:16;;;;;;;2.10;1.75;;;;;;;20.26;64.62;97280.25;10457438;28;20056;-50
2022/08/30 01:49:36;;;;;;;2.72;1.70;;;;;;;20.25;64.58;97272.47;10470716;28;20037;-50
2022/08/30 01:54:56;;;;;;;2.10;1.80;;;;;;;20.24;64.58;97274.38;10457520;28;20060;-49
2022/08/30 02:00:16;;;;;;;2.13;1.70;;;;;;;20.24;64.59;97274.38;10456243;28;20053;-51
2022/08/30 02:05:36;;;;;;;3.53;1.98;;;;;;;20.23;64.56;97264.66;10456625;28;20072;-50
2022/08/30 02:10:56;;;;;;;2.67;1.70;;;;;;;20.23;64.44;97270.09;10470006;28;20037;-51
2022/08/30 02:16:21;;;;;;;2.50;1.70;;;;;;;20.24;64.49;97273.56;10454377;28;20045;-50
2022/08/30 02:21:40;;;;;;;1.67;1.58;;;;;;;20.23;64.42;97264.66;10456047;28;20056;-49
2022/08/30 02:27:00;;;;;;;2.10;1.67;;;;;;;20.24;64.35;97270.88;10455844;28;20064;-52
2022/08/30 02:32:19;;;;;;;1.70;1.60;;;;;;;20.22;64.23;97265.78;10455378;28;20075;-50
2022/08/30 02:37:38;;;;;;;1.70;1.60;;;;;;;20.22;64.29;97273.88;10442979;28;20060;-50
2022/08/30 02:42:58;;;;;;;2.58;1.85;;;;;;;20.23;64.30;97269.25;10468706;28;20057;-51
2022/08/30 02:48:18;;;;;;;1.65;1.55;;;;;;;20.23;64.26;97261.16;10455919;28;20084;-51
2022/08/30 02:53:39;;;;;;;2.15;1.80;;;;;;;20.22;64.27;97263.06;10455190;28;20045;-51
2022/08/30 02:58:59;;;;;;;1.67;1.58;;;;;;;20.21;64.27;97257.97;10462026;28;20037;-50
2022/08/30 03:04:19;;;;;;;2.63;1.80;;;;;;;20.22;64.14;97262.28;10462029;28;20094;-51
2022/08/30 03:09:38;;;;;;;1.90;1.70;;;;;;;20.21;64.12;97253.38;10455183;28;20056;-50
2022/08/30 03:14:57;;;;;;;2.53;1.73;;;;;;;20.21;64.13;97266.91;10442372;28;20049;-52
2022/08/30 03:20:17;;;;;;;1.70;1.60;;;;;;;20.21;64.03;97266.91;10454838;28;20056;-50
2022/08/30 03:25:38;;;;;;;2.40;2.10;;;;;;;20.21;64.11;97268.78;10467971;28;20060;-50
2022/08/30 03:30:57;;;;;;;2.05;1.77;;;;;;;20.20;64.09;97268.00;10461761;28;20434;-50
2022/08/30 03:36:16;;;;;;;1.70;1.60;;;;;;;20.21;64.02;97272.31;10443828;28;20095;-51
2022/08/30 03:41:36;;;;;;;1.90;1.63;;;;;;;20.19;64.07;97276.41;10467926;28;20037;-50
2022/08/30 03:46:55;;;;;;;3.22;1.80;;;;;;;20.20;64.07;97269.91;10467819;28;20044;-50
2022/08/30 03:52:14;;;;;;;2.25;1.70;;;;;;;20.19;64.08;97263.72;10455239;28;20481;-50
2022/08/30 03:57:33;;;;;;;2.22;1.90;;;;;;;20.20;64.11;97268.00;10454063;28;20049;-51
2022/08/30 04:02:52;;;;;;;2.53;1.70;;;;;;;20.19;64.04;97258.31;10454284;28;20144;-52
2022/08/30 04:08:12;;;;;;;2.05;1.63;;;;;;;20.18;64.04;97262.09;10469903;28;20456;-50
2022/08/30 04:13:32;;;;;;;2.13;1.70;;;;;;;20.18;64.01;97256.69;10464074;28;20436;-50
2022/08/30 04:18:52;;;;;;;3.33;1.80;;;;;;;20.19;64.06;97260.19;10474648;28;20420;-51
2022/08/30 04:24:12;;;;;;;2.50;1.92;;;;;;;20.18;64.08;97262.09;10459848;28;20049;-51
2022/08/30 04:29:32;;;;;;;1.80;1.70;;;;;;;20.17;64.03;97260.53;10460240;28;20061;-49
2022/08/30 04:34:56;;;;;;;2.10;1.80;;;;;;;20.17;63.99;97271.34;10459626;28;20493;-51
2022/08/30 04:40:16;;;;;;;2.20;2.00;;;;;;;20.16;63.98;97277.88;10447664;28;20048;-51
2022/08/30 04:45:37;;;;;;;2.42;2.00;;;;;;;20.17;63.95;97275.94;10473233;28;20040;-50
2022/08/30 04:50:56;;;;;;;2.20;2.00;;;;;;;20.18;63.99;97291.88;10460420;28;20126;-50
2022/08/30 04:56:18;;;;;;;2.33;2.10;;;;;;;20.18;63.88;97293.78;10459478;28;20045;-49
2022/08/30 05:01:38;;;;;;;2.45;2.03;;;;;;;20.17;63.87;97306.53;10459558;28;20110;-51
2022/08/30 05:06:58;;;;;;;2.00;1.80;;;;;;;20.18;63.92;97304.59;10459530;28;20115;-51
2022/08/30 05:12:17;;;;;;;2.15;1.95;;;;;;;20.18;63.80;97305.38;10472674;28;20041;-50
2022/08/30 05:17:38;;;;;;;1.67;1.50;;;;;;;20.17;63.84;97303.00;10458647;28;20053;-50
2022/08/30 05:22:57;;;;;;;1.92;1.80;;;;;;;20.18;63.79;97308.09;10472174;28;20051;-51
2022/08/30 05:28:16;;;;;;;1.90;1.80;;;;;;;20.18;63.73;97310.81;10458319;28;20048;-49
2022/08/30 05:33:36;;;;;;;2.78;2.15;;;;;;;20.15;63.64;97301.41;10457516;28;20053;-48
2022/08/30 05:38:55;;;;;;;2.03;1.70;;;;;;;20.16;63.83;97313.03;10457459;28;20057;-50
2022/08/30 05:44:14;;;;;;;1.95;1.75;;;;;;;20.16;63.73;97313.03;10459189;28;20519;-50
2022/08/30 05:49:34;;;;;;;2.30;1.73;;;;;;;20.16;63.84;97313.03;10457563;28;20171;-50
2022/08/30 05:54:57;;;;;;;2.08;1.80;;;;;;;20.17;63.86;97314.63;10457411;28;20053;-50
2022/08/30 06:00:17;;;;;;;2.70;1.90;;;;;;;20.17;63.76;97320.03;10456514;28;20531;-51
2022/08/30 06:05:37;;;;;;;2.50;2.03;;;;;;;20.16;63.81;97321.13;10460743;28;20052;-51
2022/08/30 06:10:57;;;;;;;2.08;1.88;;;;;;;20.18;63.75;97326.25;10460602;28;20052;-51
2022/08/30 06:16:18;;;;;;;2.10;1.90;;;;;;;20.17;63.80;97328.16;10456333;28;20045;-51
2022/08/30 06:21:39;;;;;;;1.90;1.70;;;;;;;20.18;63.83;97327.03;10475496;28;20044;-51
2022/08/30 06:26:59;;;;;;;1.77;1.67;;;;;;;20.18;63.92;97327.03;10455834;28;20049;-50
2022/08/30 06:32:18;;;;;;;2.53;2.10;;;;;;;20.17;64.06;97311.94;10452824;28;20048;-51
2022/08/30 06:37:37;;;;;;;1.95;1.85;;;;;;;20.18;63.89;97326.25;10455875;28;20057;-51
2022/08/30 06:42:57;;;;;;;1.90;1.70;;;;;;;20.18;63.90;97327.03;10472401;28;20507;-50
2022/08/30 06:48:16;;;;;;;2.00;1.80;;;;;;;20.18;63.90;97327.03;10455465;28;20056;-52
2022/08/30 06:53:35;;;;;;;2.42;1.83;;;;;;;20.19;63.93;97333.22;10454724;28;20559;-49
2022/08/30 06:58:55;;;;;;;1.88;1.77;;;;;;;20.19;63.98;97336.75;10443921;28;20045;-51
2022/08/30 07:04:15;;;;;;;2.13;1.92;;;;;;;20.17;63.94;97330.88;10455268;28;20060;-50
2022/08/30 07:09:34;;;;;;;2.30;2.10;;;;;;;20.19;64.04;97334.06;10457740;28;20052;-50
2022/08/30 07:14:54;;;;;;;2.53;1.90;;;;;;;20.19;64.06;97333.22;10466624;28;20405;-51
2022/08/30 07:20:13;;;;;;;2.10;1.90;;;;;;;20.20;63.94;97341.03;10454687;28;20052;-51
2022/08/30 07:25:36;;;;;;;2.33;2.00;;;;;;;20.20;64.05;97348.38;10458806;28;20515;-51
2022/08/30 07:30:55;;;;;;;2.20;2.00;;;;;;;20.20;63.92;97346.44;10459846;28;20405;-49
2022/08/30 07:36:16;;;;;;;2.05;1.85;;;;;;;20.20;63.97;97346.44;10451155;28;20044;-50
2022/08/30 07:41:37;;;;;;;3.08;1.90;;;;;;;20.19;64.07;97355.69;10454603;28;20052;-50
2022/08/30 07:46:57;;;;;;;2.38;1.90;;;;;;;20.20;64.06;97343.75;10475553;28;20044;-51
2022/08/30 07:52:16;;;;;;;2.40;2.10;;;;;;;20.20;64.17;97343.75;10450009;28;20060;-49
2022/08/30 07:57:35;;;;;;;2.25;2.03;;;;;;;20.20;64.11;97349.16;10507465;28;20048;-50
2022/08/30 08:02:54;;;;;;;2.22;2.03;;;;;;;20.20;64.17;97357.28;10503301;28;20094;-51
2022/08/30 08:08:14;;;;;;;2.25;2.05;;;;;;;20.20;64.21;97356.47;10505957;28;20048;-51
2022/08/30 08:13:33;;;;;;;2.45;2.25;;;;;;;20.20;64.17;97353.78;10491966;28;20048;-52
2022/08/30 08:18:54;;;;;;;2.22;2.03;;;;;;;20.19;64.16;97363.81;10515888;28;20051;-50
2022/08/30 08:24:14;;;;;;;2.45;2.00;;;;;;;20.20;64.18;97362.69;10506713;28;20063;-51
2022/08/30 08:29:33;;;;;;;3.75;2.05;;;;;;;20.21;64.16;97368.88;10489562;28;20061;-50
2022/08/30 08:34:53;;;;;;;2.33;2.13;;;;;;;20.21;64.11;97364.28;10501929;28;20051;-50
2022/08/30 08:40:15;;;;;;;2.63;2.20;;;;;;;20.20;64.19;97362.69;10506399;28;20060;-50
2022/08/30 08:45:46;;;;;;;2.17;1.83;;;;;;;20.21;64.22;97369.69;10525171;28;20048;-51
2022/08/30 08:56:49;;;;;;;3.10;2.10;;;;;;;20.21;64.29;97361.59;10509063;28;20701;-52
2022/08/30 09:02:38;;;;;;;2.95;1.85;;;;;;;20.22;64.22;97359.66;10500878;28;20055;-49
2022/08/30 09:08:01;;;;;;;2.05;1.90;;;;;;;20.22;64.34;97352.34;10489442;28;20056;-51
2022/08/30 09:13:23;;;;;;;2.22;2.03;;;;;;;20.22;64.35;97346.94;10500082;28;20041;-51
2022/08/30 09:18:45;;;;;;;2.13;2.03;;;;;;;20.23;64.38;97340.41;10513391;28;20070;-52
2022/08/30 09:24:07;;;;;;;2.00;1.80;;;;;;;20.23;64.36;97345.00;10517587;28;20519;-50
2022/08/30 09:29:26;;;;;;;2.65;2.38;;;;;;;20.23;64.40;97336.91;10499978;28;20094;-51
2022/08/30 09:34:46;;;;;;;2.50;2.22;;;;;;;20.23;64.52;97335.00;10498953;28;20056;-51
2022/08/30 09:40:13;;;;;;;2.50;2.30;;;;;;;20.24;64.37;97338.50;10517814;28;20055;-50
2022/08/30 09:45:41;;;;;;;2.10;1.90;;;;;;;20.23;64.38;97329.59;10499369;28;20055;-51
2022/08/30 09:51:07;;;;;;;2.20;2.00;;;;;;;20.24;64.51;97328.47;10502731;28;20048;-52
2022/08/30 09:56:50;;;;;;;3.33;2.22;;;;;;;20.23;64.52;97324.19;10498712;28;20052;-51
2022/08/30 10:02:40;;;;;;;2.15;1.95;;;;;;;20.24;64.52;97325.75;10483739;28;20052;-50
2022/08/30 10:08:14;;;;;;;2.40;2.20;;;;;;;20.25;64.55;97318.47;10501895;28;20044;-52
2022/08/30 10:13:55;;;;;;;2.10;1.90;;;;;;;20.25;64.42;97315.75;10501576;28;20033;-51
2022/08/30 10:19:23;;;;;;;2.08;1.88;;;;;;;20.25;64.44;97313.84;10499658;28;20082;-51
2022/08/30 10:24:50;;;;;;;2.10;1.90;;;;;;;20.25;64.49;97321.16;10471404;28;20044;-51
2022/08/30 10:30:12;;;;;;;2.05;1.90;;;;;;;20.25;64.53;97321.97;10497042;28;20060;-51
2022/08/30 10:35:39;;;;;;;2.63;2.20;;;;;;;20.26;64.55;97307.31;10487694;28;20154;-50
2022/08/30 10:41:19;;;;;;;2.23;1.93;;;;;;;20.27;64.66;97308.13;10482609;28;20048;-51
2022/08/30 10:46:40;;;;;;;;;;;;;;;20.27;64.70;97302.72;10497957;28;20044;-52
2022/08/30 10:52:42;;;;;;;2.13;1.92;;;;;;;20.26;64.67;97301.91;10486949;28;19935;-50
2022/08/30 10:58:04;;;;;;;2.10;1.90;;;;;;;20.26;64.58;97299.19;10491234;28;20052;-50
2022/08/30 11:03:36;;;;;;;2.08;1.98;;;;;;;20.26;64.68;97304.59;10500989;28;20098;-51
2022/08/30 11:09:02;;;;;;;2.63;2.00;;;;;;;20.27;64.60;97314.31;10487547;28;20109;-52
2022/08/30 11:14:22;;;;;;;2.30;2.10;;;;;;;20.26;64.76;97307.31;10509242;28;20063;-50
2022/08/30 11:19:42;;;;;;;2.03;1.88;;;;;;;20.27;64.75;97303.50;10507295;28;20056;-51
2022/08/30 11:25:48;;;;;;;1.92;1.80;;;;;;;20.28;64.79;97304.28;10504966;28;20411;-51
2022/08/30 11:31:16;;;;;;;2.58;2.10;;;;;;;20.28;64.73;97307.00;10491024;28;20057;-50
2022/08/30 11:36:39;;;;;;;1.92;1.83;;;;;;;20.27;64.79;97306.22;10508593;28;20048;-50
2022/08/30 11:42:24;;;;;;;2.83;2.05;;;;;;;20.30;64.79;97302.06;10504034;28;20189;-51
2022/08/30 11:47:48;;;;;;;2.58;2.00;;;;;;;20.30;64.74;97302.06;10511867;28;20498;-51
2022/08/30 11:53:52;;;;;;;2.10;1.85;;;;;;;20.29;64.83;97303.19;10503532;28;20048;-48
2022/08/30 11:59:30;;;;;;;1.85;1.73;;;;;;;20.29;64.93;97300.50;10502348;28;20039;-50
2022/08/30 12:04:51;;;;;;;2.60;2.20;;;;;;;20.28;64.85;97298.88;10507474;28;20090;-50
2022/08/30 12:10:22;;;;;;;1.70;1.60;;;;;;;20.29;64.91;97306.69;10502333;28;20059;-50
2022/08/30 12:15:57;;;;;;;2.17;1.98;;;;;;;20.31;64.97;97311.78;10502998;28;20048;-50
2022/08/30 12:21:16;;;;;;;2.20;2.00;;;;;;;20.29;64.98;97293.16;10487026;28;20454;-50
2022/08/30 12:26:38;;;;;;;1.90;1.80;;;;;;;20.30;64.96;97294.75;10492350;28;20435;-51
2022/08/30 12:32:06;;;;;;;2.25;2.05;;;;;;;20.29;64.95;97285.03;10504718;28;20114;-51
2022/08/30 12:37:37;;;;;;;2.63;2.20;;;;;;;20.31;65.09;97277.41;10501923;28;20163;-50
2022/08/30 12:42:59;;;;;;;2.22;2.03;;;;;;;20.29;65.03;97268.81;10492841;28;20127;-50
2022/08/30 12:48:19;;;;;;;2.30;2.05;;;;;;;20.30;64.90;97266.88;10518973;28;20052;-49
2022/08/30 12:53:40;;;;;;;2.20;2.00;;;;;;;20.30;64.89;97270.38;10500487;28;20053;-52
2022/08/30 12:59:00;;;;;;;2.35;2.15;;;;;;;20.30;64.93;97267.69;10500700;28;20045;-51
2022/08/30 13:04:26;;;;;;;2.10;2.00;;;;;;;20.31;65.04;97255.75;10505530;28;20049;-50
2022/08/30 13:09:45;;;;;;;1.98;1.77;;;;;;;20.31;65.01;97254.97;10486154;28;20054;-50
2022/08/30 13:15:12;;;;;;;2.20;2.00;;;;;;;20.31;64.91;97247.63;10493956;28;20040;-50
2022/08/30 13:20:31;;;;;;;2.10;1.90;;;;;;;20.33;64.83;97252.75;10526768;28;20047;-51
2022/08/30 13:25:51;;;;;;;2.40;1.90;;;;;;;20.32;64.95;97246.50;10526971;28;20102;-51
2022/08/30 13:31:10;;;;;;;2.03;1.83;;;;;;;20.33;65.00;97247.31;10492017;28;20067;-50
2022/08/30 13:36:33;;;;;;;2.20;2.00;;;;;;;20.32;64.93;97243.81;10499660;28;20053;-49
2022/08/30 13:41:53;;;;;;;2.10;1.90;;;;;;;20.34;64.98;97241.56;10499180;28;20052;-49
2022/08/30 13:47:12;;;;;;;2.00;1.90;;;;;;;20.34;65.01;97236.16;10502928;28;20075;-52
2022/08/30 13:52:32;;;;;;;2.20;2.00;;;;;;;20.34;64.94;97224.56;10483543;28;20415;-51
2022/08/30 13:57:52;;;;;;;2.13;1.95;;;;;;;20.36;65.10;97227.72;10512228;28;20377;-50
2022/08/30 14:03:12;;;;;;;2.20;2.00;;;;;;;20.35;64.89;97216.13;10496271;28;20059;-51
2022/08/30 14:08:31;;;;;;;2.30;1.90;;;;;;;20.34;64.93;97214.50;10498495;28;20059;-49
2022/08/30 14:13:51;;;;;;;2.03;1.70;;;;;;;20.36;65.07;97211.50;10501734;28;20045;-51
2022/08/30 14:19:12;;;;;;;2.20;1.80;;;;;;;20.37;65.04;97215.81;10498072;28;20060;-50
2022/08/30 14:24:32;;;;;;;2.20;2.00;;;;;;;20.35;65.03;97208.00;10510323;28;20048;-51
2022/08/30 14:29:51;;;;;;;2.70;1.90;;;;;;;20.36;65.12;97200.69;10511863;28;20381;-50
2022/08/30 14:35:10;;;;;;;1.83;1.73;;;;;;;20.38;65.07;97206.56;10497679;28;20415;-51
2022/08/30 14:40:30;;;;;;;1.90;1.80;;;;;;;20.37;65.17;97191.47;10510677;28;20036;-49
2022/08/30 14:45:49;;;;;;;2.83;1.98;;;;;;;20.38;65.27;97193.03;10495184;28;20053;-50
2022/08/30 14:51:15;;;;;;;1.98;1.88;;;;;;;20.39;65.22;97181.09;10488425;28;20048;-51
2022/08/30 14:56:36;;;;;;;2.10;1.90;;;;;;;20.41;65.26;97184.28;10498769;28;20045;-48
2022/08/30 15:01:55;;;;;;;2.03;1.85;;;;;;;20.43;65.33;97183.97;10496709;28;20053;-50
2022/08/30 15:07:15;;;;;;;1.80;1.70;;;;;;;20.45;65.17;97184.44;10496136;28;20045;-51
2022/08/30 15:12:34;;;;;;;2.00;1.90;;;;;;;20.44;65.30;97170.09;10513681;28;20098;-51
2022/08/30 15:17:53;;;;;;;1.98;1.80;;;;;;;20.45;65.25;97168.22;10509783;28;20041;-49
2022/08/30 15:23:13;;;;;;;2.17;1.92;;;;;;;20.50;65.28;97170.72;10496914;28;20044;-50
2022/08/30 15:28:33;;;;;;;2.00;1.90;;;;;;;20.49;65.22;97169.16;10500668;28;20055;-50
2022/08/30 15:33:53;;;;;;;1.80;1.70;;;;;;;20.51;65.30;97169.63;10496287;28;20052;-50
2022/08/30 15:39:12;;;;;;;2.25;1.88;;;;;;;20.50;65.18;97163.44;10495724;28;20063;-50
2022/08/30 15:44:32;;;;;;;2.08;1.98;;;;;;;20.51;65.23;97166.91;10500915;28;20048;-50
2022/08/30 15:49:57;;;;;;;2.28;2.08;;;;;;;20.49;65.31;97163.75;10509491;28;20040;-52
2022/08/30 15:55:17;;;;;;;2.10;1.90;;;;;;;20.49;65.36;97161.03;10500186;28;20395;-49
2022/08/30 16:00:36;;;;;;;2.05;1.80;;;;;;;20.49;65.21;97163.75;10485254;28;20106;-49
2022/08/30 16:05:56;;;;;;;2.05;1.85;;;;;;;20.51;65.24;97161.50;10515922;28;20048;-50
2022/08/30 16:11:20;;;;;;;2.13;2.00;;;;;;;20.51;65.19;97154.19;10506368;28;20056;-51
2022/08/30 16:16:40;;;;;;;2.08;1.88;;;;;;;20.52;65.33;97158.50;10501723;28;20045;-50
2022/08/30 16:22:00;;;;;;;1.92;1.80;;;;;;;20.52;65.12;97150.38;10502823;28;20481;-51
2022/08/30 16:27:22;;;;;;;2.78;2.10;;;;;;;20.53;65.21;97154.66;10520106;28;20106;-52
2022/08/30 16:32:41;;;;;;;2.33;2.13;;;;;;;20.52;65.19;97150.38;10503887;28;20049;-51
2022/08/30 16:38:01;;;;;;;1.90;1.80;;;;;;;20.53;65.21;97159.28;10502415;28;20052;-50
2022/08/30 16:43:21;;;;;;;1.80;1.70;;;;;;;20.52;65.35;97152.25;10502392;28;20060;-50
2022/08/30 16:48:41;;;;;;;2.60;1.90;;;;;;;20.51;65.54;97151.47;10501541;28;20066;-51
2022/08/30 16:54:04;;;;;;;1.92;1.77;;;;;;;20.50;65.34;97149.91;10504958;28;20106;-49
2022/08/30 16:59:23;;;;;;;2.58;2.17;;;;;;;20.50;65.39;97141.78;10501512;28;20053;-49
2022/08/30 17:04:43;;;;;;;1.80;1.70;;;;;;;20.49;65.44;97148.28;10501103;28;20048;-50
2022/08/30 17:10:03;;;;;;;1.88;1.77;;;;;;;20.49;65.40;97155.63;10505095;28;20056;-51
2022/08/30 17:15:23;;;;;;;2.70;1.98;;;;;;;20.48;65.21;97148.59;10499202;28;20044;-50
2022/08/30 17:20:43;;;;;;;2.40;2.17;;;;;;;20.49;65.39;97152.91;10499741;28;20049;-50
2022/08/30 17:26:03;;;;;;;2.00;1.90;;;;;;;20.48;65.42;97156.72;10500156;28;20114;-50
2022/08/30 17:31:22;;;;;;;2.25;1.70;;;;;;;20.48;65.40;97156.72;10488888;28;20048;-50
2022/08/30 17:36:43;;;;;;;1.90;1.80;;;;;;;20.48;65.45;97159.44;10498729;28;20049;-50
2022/08/30 17:42:03;;;;;;;1.88;1.75;;;;;;;20.48;65.27;97157.53;10496286;28;20052;-49
2022/08/30 17:47:22;;;;;;;2.25;2.05;;;;;;;20.46;65.39;97159.75;10486502;28;20474;-49
2022/08/30 17:52:42;;;;;;;2.38;2.00;;;;;;;20.46;65.28;97165.16;10503006;28;20045;-51
2022/08/30 17:58:01;;;;;;;1.95;1.85;;;;;;;20.45;65.37;97173.63;10498941;28;20106;-51
2022/08/30 18:03:20;;;;;;;2.05;1.85;;;;;;;20.47;65.30;97177.59;10498453;28;20128;-51
2022/08/30 18:08:40;;;;;;;2.50;2.00;;;;;;;20.45;65.27;97181.75;10491889;28;20117;-50
2022/08/30 18:13:59;;;;;;;2.45;2.10;;;;;;;20.45;65.15;97181.75;10511553;28;20485;-50
2022/08/30 18:19:19;;;;;;;2.20;2.03;;;;;;;20.47;65.21;97182.22;10497838;28;20059;-50
2022/08/30 18:24:38;;;;;;;1.90;1.80;;;;;;;20.46;65.18;97188.72;10501661;28;20044;-49
2022/08/30 18:29:58;;;;;;;2.28;2.08;;;;;;;20.45;65.23;97198.75;10496992;28;20065;-51
2022/08/30 18:35:18;;;;;;;3.42;2.20;;;;;;;20.44;65.22;97193.66;10498250;28;20056;-49
2022/08/30 18:40:37;;;;;;;2.10;1.90;;;;;;;20.44;65.15;97199.88;10511845;28;20484;-52
2022/08/30 18:46:04;;;;;;;2.67;2.17;;;;;;;20.44;65.13;97199.06;10486628;28;20404;-51
2022/08/30 18:51:24;;;;;;;2.10;1.90;;;;;;;20.43;64.98;97200.22;10514198;28;20045;-51
2022/08/30 18:56:43;;;;;;;2.03;1.92;;;;;;;20.44;65.07;97204.50;10496953;28;20059;-50
2022/08/30 19:02:08;;;;;;;2.03;1.83;;;;;;;20.44;64.94;97213.41;10497074;28;20056;-50
2022/08/30 19:07:27;;;;;;;2.20;2.00;;;;;;;20.44;64.99;97205.28;10514319;28;20051;-51
2022/08/30 19:12:46;;;;;;;2.30;2.03;;;;;;;20.43;64.89;97206.41;10509758;28;20070;-50
2022/08/30 19:18:06;;;;;;;2.03;1.83;;;;;;;20.44;64.86;97209.91;10496725;28;20062;-48
2022/08/30 19:23:27;;;;;;;2.70;2.13;;;;;;;20.44;64.80;97216.09;10500743;28;20048;-50
2022/08/30 19:28:46;;;;;;;1.83;1.73;;;;;;;20.44;64.90;97218.03;10495882;28;20053;-50
2022/08/30 19:34:05;;;;;;;2.10;1.95;;;;;;;20.43;64.85;97214.53;10500345;28;20491;-49
2022/08/30 19:39:25;;;;;;;1.73;1.63;;;;;;;20.43;64.86;97221.88;10489211;28;20044;-51
2022/08/30 19:44:44;;;;;;;2.00;1.80;;;;;;;20.43;64.92;97221.88;10517348;28;20040;-51
2022/08/30 19:50:05;;;;;;;1.90;1.80;;;;;;;20.42;64.77;97218.34;10507568;28;20048;-51
2022/08/30 19:55:26;;;;;;;2.20;2.00;;;;;;;20.43;64.70;97209.13;10488294;28;20052;-50
2022/08/30 20:00:46;;;;;;;2.08;1.88;;;;;;;20.43;64.70;97219.16;10503141;28;20450;-50
2022/08/30 20:06:06;;;;;;;2.05;1.95;;;;;;;20.43;64.69;97219.16;10506999;28;20106;-50
2022/08/30 20:11:27;;;;;;;2.30;2.10;;;;;;;20.44;64.67;97218.03;10502613;28;20053;-50
2022/08/30 20:16:48;;;;;;;2.03;1.92;;;;;;;20.43;64.56;97222.66;10505823;28;20040;-51
2022/08/30 20:22:09;;;;;;;2.13;2.00;;;;;;;20.42;64.55;97214.84;10503911;28;20102;-49
2022/08/30 20:27:28;;;;;;;2.83;2.08;;;;;;;20.42;64.55;97223.75;10500724;28;20052;-51
2022/08/30 20:32:48;;;;;;;1.98;1.75;;;;;;;20.43;64.42;97208.31;10505499;28;20079;-49
2022/08/30 20:38:07;;;;;;;2.40;2.20;;;;;;;20.43;64.50;97202.91;10502245;28;20125;-49
2022/08/30 20:43:28;;;;;;;2.15;1.95;;;;;;;20.42;64.51;97204.81;10514933;28;20051;-50
2022/08/30 20:48:48;;;;;;;1.85;1.75;;;;;;;20.42;64.51;97195.91;10504635;28;20126;-50
2022/08/30 20:54:07;;;;;;;1.88;1.67;;;;;;;20.43;64.42;97208.31;10501076;28;20498;-51
2022/08/30 20:59:29;;;;;;;2.28;2.00;;;;;;;20.42;64.34;97198.59;10501411;28;20048;-51
2022/08/30 21:04:49;;;;;;;2.30;2.10;;;;;;;20.43;64.43;97208.31;10505122;28;20044;-50
2022/08/30 21:10:10;;;;;;;1.90;1.80;;;;;;;20.43;64.31;97219.16;10487801;28;20052;-51
2022/08/30 21:15:30;;;;;;;2.30;2.10;;;;;;;20.42;64.31;97210.22;10500007;28;20102;-50
2022/08/30 21:20:49;;;;;;;3.53;2.47;;;;;;;20.42;64.34;97209.44;10501631;28;20052;-49
2022/08/30 21:26:09;;;;;;;2.15;1.95;;;;;;;20.42;64.21;97206.72;10499805;28;20408;-50
2022/08/30 21:31:29;;;;;;;2.10;1.95;;;;;;;20.41;64.20;97205.94;10503408;28;20056;-48
2022/08/30 21:36:49;;;;;;;2.33;1.98;;;;;;;20.41;64.17;97205.94;10499589;28;20044;-49
2022/08/30 21:42:10;;;;;;;2.10;1.90;;;;;;;20.41;64.21;97214.06;10499045;28;20401;-51
2022/08/30 21:47:30;;;;;;;2.22;2.03;;;;;;;20.40;64.15;97215.16;10502707;28;20044;-49
2022/08/30 21:52:50;;;;;;;2.88;2.17;;;;;;;20.40;64.09;97211.66;10498823;28;20071;-49
2022/08/30 21:58:09;;;;;;;2.20;2.00;;;;;;;20.41;64.12;97215.97;10499141;28;20118;-52
2022/08/30 22:03:29;;;;;;;2.30;2.10;;;;;;;20.40;64.18;97223.28;10501917;28;20055;-52
2022/08/30 22:08:49;;;;;;;2.03;1.90;;;;;;;20.40;64.09;97223.28;10498863;28;20408;-51
2022/08/30 22:14:09;;;;;;;1.98;1.88;;;;;;;20.40;64.04;97223.28;10498349;28;20056;-50
2022/08/30 22:19:28;;;;;;;2.47;1.90;;;;;;;20.41;64.07;97226.78;10500788;28;20049;-49
2022/08/30 22:24:48;;;;;;;2.13;2.03;;;;;;;20.40;64.10;97217.88;10487727;28;20094;-50
2022/08/30 22:30:07;;;;;;;1.95;1.75;;;;;;;20.40;63.98;97225.97;10502771;28;20118;-48
2022/08/30 22:35:27;;;;;;;2.53;1.83;;;;;;;20.40;64.02;97208.97;10497433;28;20056;-51
2022/08/30 22:40:49;;;;;;;2.13;1.92;;;;;;;20.40;64.06;97215.16;10497273;28;20056;-50
2022/08/30 22:46:10;;;;;;;2.10;2.00;;;;;;;20.39;63.83;97210.88;10501291;28;20040;-51
2022/08/30 22:51:29;;;;;;;2.30;2.10;;;;;;;20.39;64.00;97212.78;10497440;28;20102;-51
2022/08/30 22:56:48;;;;;;;2.17;2.03;;;;;;;20.39;63.87;97218.22;10497138;28;20053;-51
2022/08/30 23:02:08;;;;;;;1.95;1.80;;;;;;;20.40;63.92;97214.38;10485714;28;20051;-50
2022/08/30 23:07:27;;;;;;;2.10;1.90;;;;;;;20.39;63.91;97210.09;10496627;28;20528;-50
2022/08/30 23:12:46;;;;;;;2.00;1.90;;;;;;;20.39;63.83;97210.09;10500816;28;20040;-50
2022/08/30 23:18:05;;;;;;;2.10;1.90;;;;;;;20.39;63.78;97204.69;10492380;28;20052;-52
